Time;durP1;ratioP1;P1;durP2;ratioP2;P2;SDS_P1;SDS_P2;PMS_P1;PMS_P2;Temp;Humidity;BMP_temperature;BMP_pressure;BME280_temperature;BME280_humidity;BME280_pressure;Samples;Min_cycle;Max_cycle;Signal;HPM_P1;HPM_P2
2022/08/05 00:04:56;;;;;;;7.88;4.35;;;;;;;;;;10523776;28;20124;-83
2022/08/05 00:10:08;;;;;;;6.80;5.22;;;;;;;;;;10515087;28;20040;-82
2022/08/05 00:15:24;;;;;;;6.65;4.78;;;;;;;;;;10504537;28;20110;-83
2022/08/05 00:20:52;;;;;;;6.32;4.28;;;;;;;;;;10502726;28;20051;-83
2022/08/05 00:25:59;;;;;;;5.65;4.20;;;;;;;;;;10503444;28;20071;-83
2022/08/05 00:31:27;;;;;;;6.90;4.78;;;;;;;;;;10503398;28;20036;-83
2022/08/05 00:36:48;;;;;;;7.20;4.03;;;;;;;;;;10515798;28;20040;-83
2022/08/05 00:42:21;;;;;;;10.20;4.20;;;;;;;;;;10503691;28;20062;-82
2022/08/05 00:47:51;;;;;;;7.60;4.30;;;;;;;;;;10502956;28;20059;-82
2022/08/05 00:53:12;;;;;;;7.47;4.25;;;;;;;;;;10489002;28;20079;-82
2022/08/05 00:58:43;;;;;;;6.03;4.28;;;;;;;;;;10512019;28;20132;-83
2022/08/05 01:03:47;;;;;;;5.82;4.13;;;;;;;;;;10494304;28;20089;-83
2022/08/05 01:09:04;;;;;;;5.50;4.10;;;;;;;;;;10529940;28;20028;-83
2022/08/05 01:14:20;;;;;;;7.00;4.80;;;;;;;;;;10530524;28;20054;-82
2022/08/05 01:19:35;;;;;;;7.07;4.25;;;;;;;;;;10508020;28;20576;-83
2022/08/05 01:25:30;;;;;;;6.63;4.55;;;;;;;;;;10496864;28;20047;-83
2022/08/05 01:31:05;;;;;;;5.75;4.45;;;;;;;;;;10512040;28;20693;-83
2022/08/05 01:36:44;;;;;;;7.68;4.32;;;;;;;;;;10526939;28;20351;-83
2022/08/05 01:42:13;;;;;;;7.07;4.30;;;;;;;;;;10539712;28;20038;-83
2022/08/05 01:47:23;;;;;;;5.22;3.92;;;;;;;;;;10509429;28;20051;-83
2022/08/05 01:52:43;;;;;;;6.15;4.10;;;;;;;;;;10509637;28;20066;-83
2022/08/05 01:58:01;;;;;;;6.38;4.47;;;;;;;;;;10507589;28;20159;-84
2022/08/05 02:03:25;;;;;;;8.25;4.40;;;;;;;;;;10527796;28;20032;-83
2022/08/05 02:08:48;;;;;;;6.13;4.32;;;;;;;;;;10509120;28;20050;-84
2022/08/05 02:14:09;;;;;;;6.60;4.30;;;;;;;;;;10520726;28;20048;-84
2022/08/05 02:19:24;;;;;;;6.45;4.40;;;;;;;;;;10524190;28;20123;-83
2022/08/05 02:24:44;;;;;;;6.20;4.28;;;;;;;;;;10532963;28;20122;-83
2022/08/05 02:29:56;;;;;;;7.73;4.43;;;;;;;;;;10547911;28;20039;-82
2022/08/05 02:35:19;;;;;;;5.72;4.25;;;;;;;;;;10532845;28;20294;-83
2022/08/05 02:40:44;;;;;;;6.03;4.60;;;;;;;;;;10533636;28;20134;-83
2022/08/05 02:45:54;;;;;;;8.68;4.55;;;;;;;;;;10534196;28;20052;-83
2022/08/05 02:51:06;;;;;;;7.47;4.55;;;;;;;;;;10511892;28;20058;-83
2022/08/05 02:56:21;;;;;;;7.45;4.30;;;;;;;;;;10529515;28;20492;-82
2022/08/05 03:01:30;;;;;;;5.75;4.25;;;;;;;;;;10532430;28;20123;-84
2022/08/05 03:06:45;;;;;;;6.10;4.90;;;;;;;;;;10507482;28;20044;-83
2022/08/05 03:12:04;;;;;;;6.55;4.65;;;;;;;;;;10517606;28;20048;-83
2022/08/05 03:22:38;;;;;;;8.02;4.43;;;;;;;;;;10513041;28;20411;-84
2022/08/05 03:27:53;;;;;;;7.88;4.40;;;;;;;;;;10498446;28;20050;-83
2022/08/05 03:33:28;;;;;;;6.90;4.22;;;;;;;;;;10509619;28;20044;-82
2022/08/05 03:39:04;;;;;;;7.93;4.72;;;;;;;;;;10509039;28;20035;-84
2022/08/05 03:44:32;;;;;;;7.00;4.60;;;;;;;;;;10514857;28;20183;-83
2022/08/05 03:49:43;;;;;;;6.55;4.65;;;;;;;;;;10527634;28;20046;-82
2022/08/05 03:55:06;;;;;;;7.85;4.57;;;;;;;;;;10509332;28;20583;-82
2022/08/05 04:00:31;;;;;;;6.05;4.55;;;;;;;;;;10527398;28;20193;-83
2022/08/05 04:05:48;;;;;;;9.80;4.65;;;;;;;;;;10525258;28;20513;-83
2022/08/05 04:10:55;;;;;;;6.55;4.70;;;;;;;;;;10505075;28;20048;-83
2022/08/05 04:16:12;;;;;;;7.10;4.63;;;;;;;;;;10511470;28;20036;-83
2022/08/05 04:21:34;;;;;;;7.40;4.75;;;;;;;;;;10526328;28;20028;-83
2022/08/05 04:27:08;;;;;;;7.57;5.00;;;;;;;;;;10513695;28;20052;-83
2022/08/05 04:32:15;;;;;;;7.85;4.82;;;;;;;;;;10525334;28;20127;-83
2022/08/05 04:37:46;;;;;;;6.47;4.15;;;;;;;;;;10531497;28;20147;-83
2022/08/05 04:43:26;;;;;;;7.25;4.10;;;;;;;;;;10502365;28;20491;-83
2022/08/05 04:48:36;;;;;;;6.03;3.35;;;;;;;;;;10499903;28;20099;-83
2022/08/05 04:53:41;;;;;;;4.85;3.13;;;;;;;;;;10497386;28;20583;-83
2022/08/05 04:58:50;;;;;;;5.05;3.40;;;;;;;;;;10525533;28;20143;-83
2022/08/05 05:03:56;;;;;;;5.70;3.80;;;;;;;;;;10506410;28;20043;-83
2022/08/05 05:09:02;;;;;;;6.00;3.17;;;;;;;;;;10527945;28;20040;-83
2022/08/05 05:19:55;;;;;;;4.75;3.42;;;;;;;;;;10529245;28;20929;-83
2022/08/05 05:25:01;;;;;;;4.75;2.50;;;;;;;;;;10523553;28;20358;-83
2022/08/05 05:30:26;;;;;;;6.35;3.50;;;;;;;;;;10507170;28;20052;-83
2022/08/05 05:35:41;;;;;;;5.15;3.67;;;;;;;;;;10524210;28;20488;-83
2022/08/05 05:40:50;;;;;;;4.05;2.72;;;;;;;;;;10503396;28;20048;-83
2022/08/05 05:51:35;;;;;;;5.80;3.50;;;;;;;;;;10510743;28;20036;-83
2022/08/05 05:56:53;;;;;;;3.05;2.47;;;;;;;;;;10530489;28;20263;-83
2022/08/05 06:02:07;;;;;;;5.18;3.20;;;;;;;;;;10517164;28;20068;-84
2022/08/05 06:07:15;;;;;;;5.72;3.00;;;;;;;;;;10500874;28;20508;-83
2022/08/05 06:12:27;;;;;;;5.65;2.85;;;;;;;;;;10536139;28;20044;-83
2022/08/05 06:17:39;;;;;;;3.88;2.60;;;;;;;;;;10516245;28;20401;-84
2022/08/05 06:22:58;;;;;;;5.07;2.95;;;;;;;;;;10500129;28;20055;-83
2022/08/05 06:28:29;;;;;;;4.30;3.22;;;;;;;;;;10537023;28;20142;-84
2022/08/05 06:33:41;;;;;;;5.65;3.08;;;;;;;;;;10515528;28;20051;-83
2022/08/05 06:39:09;;;;;;;5.32;2.97;;;;;;;;;;10534175;28;20047;-83
2022/08/05 06:44:19;;;;;;;5.75;2.75;;;;;;;;;;10509748;28;20043;-83
2022/08/05 06:49:31;;;;;;;5.05;3.38;;;;;;;;;;10517359;28;20077;-83
2022/08/05 06:54:58;;;;;;;4.90;2.90;;;;;;;;;;10510662;28;20137;-83
2022/08/05 07:00:09;;;;;;;3.80;3.10;;;;;;;;;;10514384;28;20235;-84
2022/08/05 07:05:35;;;;;;;14.00;3.80;;;;;;;;;;10531714;28;20054;-84
2022/08/05 07:10:59;;;;;;;4.90;3.40;;;;;;;;;;10507348;28;20036;-84
2022/08/05 07:22:07;;;;;;;7.95;3.00;;;;;;;;;;10514091;28;20040;-84
2022/08/05 07:27:19;;;;;;;5.45;2.83;;;;;;;;;;10529776;28;20097;-84
2022/08/05 07:32:25;;;;;;;4.50;3.33;;;;;;;;;;10513582;28;20154;-83
2022/08/05 07:37:44;;;;;;;4.82;3.45;;;;;;;;;;10496904;28;20075;-82
2022/08/05 07:43:01;;;;;;;5.63;2.95;;;;;;;;;;10517933;28;20071;-84
2022/08/05 07:48:23;;;;;;;6.20;3.35;;;;;;;;;;10534270;28;20036;-84
2022/08/05 07:53:58;;;;;;;5.93;3.10;;;;;;;;;;10498271;28;20048;-84
2022/08/05 07:59:10;;;;;;;4.80;3.60;;;;;;;;;;10534146;28;20040;-85
2022/08/05 08:04:45;;;;;;;9.23;4.00;;;;;;;;;;10505712;28;20142;-84
2022/08/05 08:15:26;;;;;;;7.35;4.05;;;;;;;;;;10538907;28;20251;-84
2022/08/05 08:20:52;;;;;;;8.10;4.38;;;;;;;;;;10519674;28;20036;-83
2022/08/05 08:26:13;;;;;;;5.55;4.18;;;;;;;;;;10541036;28;20112;-86
2022/08/05 08:31:41;;;;;;;5.72;4.32;;;;;;;;;;10538507;28;20044;-84
2022/08/05 08:48:25;;;;;;;6.20;4.45;;;;;;;;;;10534280;28;20104;-84
2022/08/05 08:53:58;;;;;;;4.80;4.38;;;;;;;;;;10543138;28;20047;-85
2022/08/05 08:59:14;;;;;;;9.48;4.82;;;;;;;;;;10543655;28;20323;-86
2022/08/05 09:04:28;;;;;;;6.50;4.95;;;;;;;;;;10578399;28;20047;-83
2022/08/05 09:09:36;;;;;;;8.70;4.80;;;;;;;;;;10553873;28;20112;-84
2022/08/05 09:14:41;;;;;;;8.18;4.55;;;;;;;;;;10541079;28;20186;-85
2022/08/05 09:20:17;;;;;;;7.07;4.60;;;;;;;;;;10558266;28;20273;-86
2022/08/05 09:25:53;;;;;;;4.75;3.92;;;;;;;;;;10526902;28;20120;-85
2022/08/05 09:31:12;;;;;;;11.43;4.47;;;;;;;;;;10519616;28;20064;-86
2022/08/05 09:36:48;;;;;;;7.40;4.38;;;;;;;;;;10547289;28;20374;-86
2022/08/05 09:42:10;;;;;;;7.90;3.72;;;;;;;;;;10539268;28;20036;-85
2022/08/05 09:47:33;;;;;;;7.35;3.65;;;;;;;;;;10524223;28;20051;-86
2022/08/05 09:53:02;;;;;;;6.40;3.70;;;;;;;;;;10519815;28;20424;-86
2022/08/05 09:58:17;;;;;;;9.00;4.47;;;;;;;;;;10542566;28;20123;-86
2022/08/05 10:03:25;;;;;;;9.23;3.97;;;;;;;;;;10525078;28;20088;-85
2022/08/05 10:08:55;;;;;;;13.90;4.00;;;;;;;;;;10518286;28;20050;-85
2022/08/05 10:14:30;;;;;;;8.45;3.63;;;;;;;;;;10542618;28;20046;-86
2022/08/05 10:19:42;;;;;;;11.50;4.43;;;;;;;;;;10525757;28;20032;-86
2022/08/05 10:25:13;;;;;;;8.55;4.72;;;;;;;;;;10516816;28;20069;-85
2022/08/05 10:30:30;;;;;;;10.07;3.80;;;;;;;;;;10533704;28;20054;-84
2022/08/05 10:35:58;;;;;;;9.48;4.03;;;;;;;;;;10536463;28;20113;-85
2022/08/05 10:46:53;;;;;;;6.22;3.90;;;;;;;;;;10532826;28;20060;-86
2022/08/05 10:52:38;;;;;;;4.65;3.35;;;;;;;;;;10518597;28;20040;-86
2022/08/05 11:04:10;;;;;;;14.13;4.68;;;;;;;;;;10534924;28;20042;-87
2022/08/05 11:09:21;;;;;;;10.52;3.90;;;;;;;;;;10511158;28;20044;-87
2022/08/05 11:15:05;;;;;;;8.77;4.05;;;;;;;;;;10509813;28;20493;-87
2022/08/05 11:20:50;;;;;;;5.57;3.63;;;;;;;;;;10516222;28;20048;-86
2022/08/05 11:31:33;;;;;;;;;;;;;;;;;;10536735;28;20481;-85
2022/08/05 11:37:15;;;;;;;5.93;3.55;;;;;;;;;;10543204;27;20016;-86
2022/08/05 11:42:48;;;;;;;9.05;3.65;;;;;;;;;;10533399;28;20051;-86
2022/08/05 11:47:57;;;;;;;6.82;3.30;;;;;;;;;;10506172;28;20097;-87
2022/08/05 11:53:20;;;;;;;4.80;4.30;;;;;;;;;;10533070;28;20043;-87
2022/08/05 11:58:55;;;;;;;5.22;3.75;;;;;;;;;;10509857;28;20483;-86
2022/08/05 12:04:01;;;;;;;7.05;3.58;;;;;;;;;;10543784;27;20036;-86
2022/08/05 12:09:12;;;;;;;3.47;3.00;;;;;;;;;;10528729;28;20556;-86
2022/08/05 12:14:36;;;;;;;5.03;3.00;;;;;;;;;;10512636;28;20059;-86
2022/08/05 12:19:50;;;;;;;4.85;2.83;;;;;;;;;;10507716;28;20050;-86
2022/08/05 12:25:30;;;;;;;6.30;3.10;;;;;;;;;;10512874;28;20048;-87
2022/08/05 12:30:54;;;;;;;6.40;3.08;;;;;;;;;;10508833;28;20036;-86
2022/08/05 12:36:17;;;;;;;7.28;3.30;;;;;;;;;;10529255;28;20746;-86
2022/08/05 12:41:32;;;;;;;4.78;3.40;;;;;;;;;;10508100;28;20048;-87
2022/08/05 12:46:59;;;;;;;5.28;2.90;;;;;;;;;;10525840;28;20035;-86
2022/08/05 12:52:13;;;;;;;5.75;3.00;;;;;;;;;;10526209;28;20134;-86
2022/08/05 12:57:49;;;;;;;5.72;3.47;;;;;;;;;;10512437;28;20036;-86
2022/08/05 13:03:16;;;;;;;3.40;3.08;;;;;;;;;;10489377;28;20036;-86
2022/08/05 13:08:23;;;;;;;8.25;3.13;;;;;;;;;;10553708;28;20040;-85
2022/08/05 13:13:51;;;;;;;4.20;3.40;;;;;;;;;;10532048;28;20024;-86
2022/08/05 13:19:34;;;;;;;5.35;2.97;;;;;;;;;;10530334;28;20048;-86
2022/08/05 13:25:01;;;;;;;7.30;3.08;;;;;;;;;;10548643;28;20408;-87
2022/08/05 13:30:32;;;;;;;4.38;2.85;;;;;;;;;;10550578;28;20078;-85
2022/08/05 13:35:43;;;;;;;5.20;3.10;;;;;;;;;;10562581;28;20028;-86
2022/08/05 13:40:54;;;;;;;3.13;2.83;;;;;;;;;;10561445;28;20052;-86
2022/08/05 13:46:07;;;;;;;4.63;2.65;;;;;;;;;;10571381;28;20128;-84
2022/08/05 13:51:48;;;;;;;3.80;3.13;;;;;;;;;;10545328;28;20370;-83
2022/08/05 13:56:58;;;;;;;6.45;2.75;;;;;;;;;;10539482;28;20072;-83
2022/08/05 14:02:21;;;;;;;5.93;3.15;;;;;;;;;;10543894;28;20052;-86
2022/08/05 14:07:34;;;;;;;4.53;3.08;;;;;;;;;;10555601;27;20036;-85
2022/08/05 14:13:07;;;;;;;6.35;3.38;;;;;;;;;;10520344;28;20044;-85
2022/08/05 14:18:38;;;;;;;6.15;3.03;;;;;;;;;;10536152;28;20036;-85
2022/08/05 14:23:50;;;;;;;4.20;2.50;;;;;;;;;;10497133;28;20062;-85
2022/08/05 14:29:21;;;;;;;4.45;2.85;;;;;;;;;;10535175;28;20503;-86
2022/08/05 14:34:40;;;;;;;4.45;3.30;;;;;;;;;;10498248;28;20131;-85
2022/08/05 14:39:47;;;;;;;7.57;3.20;;;;;;;;;;10530914;28;20044;-86
2022/08/05 14:45:04;;;;;;;7.03;4.07;;;;;;;;;;10539975;28;20059;-86
2022/08/05 14:50:17;;;;;;;6.93;3.28;;;;;;;;;;10542494;28;20052;-86
2022/08/05 14:55:29;;;;;;;7.18;3.40;;;;;;;;;;10515602;28;20036;-86
2022/08/05 15:00:44;;;;;;;4.25;3.10;;;;;;;;;;10530055;28;20050;-85
2022/08/05 15:06:21;;;;;;;5.30;3.00;;;;;;;;;;10537354;28;20047;-85
2022/08/05 15:11:40;;;;;;;4.53;2.42;;;;;;;;;;10529591;28;20408;-85
2022/08/05 15:17:05;;;;;;;6.45;3.38;;;;;;;;;;10518882;28;20509;-85
2022/08/05 15:22:33;;;;;;;4.30;3.00;;;;;;;;;;10533040;28;20067;-85
2022/08/05 15:27:54;;;;;;;7.22;3.15;;;;;;;;;;10527130;28;20032;-86
2022/08/05 15:32:59;;;;;;;5.78;3.40;;;;;;;;;;10518287;28;20032;-85
2022/08/05 15:43:42;;;;;;;5.47;3.20;;;;;;;;;;10505927;28;20035;-85
2022/08/05 15:48:56;;;;;;;4.70;2.78;;;;;;;;;;10543416;28;20051;-85
2022/08/05 15:54:16;;;;;;;5.63;3.70;;;;;;;;;;10522385;28;20044;-85
2022/08/05 15:59:21;;;;;;;4.53;3.08;;;;;;;;;;10511653;28;20036;-85
2022/08/05 16:04:31;;;;;;;6.05;3.10;;;;;;;;;;10514154;28;20049;-85
2022/08/05 16:09:54;;;;;;;6.00;2.90;;;;;;;;;;10514567;28;20040;-85
2022/08/05 16:15:09;;;;;;;5.57;3.40;;;;;;;;;;10513406;28;20048;-85
2022/08/05 16:20:26;;;;;;;7.15;2.92;;;;;;;;;;10500353;28;20120;-85
2022/08/05 16:25:35;;;;;;;5.93;3.20;;;;;;;;;;10514617;28;20044;-85
2022/08/05 16:30:43;;;;;;;4.60;3.00;;;;;;;;;;10533403;28;20048;-86
2022/08/05 16:35:48;;;;;;;7.25;4.65;;;;;;;;;;10521659;28;20051;-86
2022/08/05 16:40:59;;;;;;;6.70;3.45;;;;;;;;;;10528928;28;20064;-85
2022/08/05 16:46:27;;;;;;;7.03;3.90;;;;;;;;;;10573258;28;20059;-84
2022/08/05 16:51:36;;;;;;;6.05;3.15;;;;;;;;;;10543612;28;20051;-85
2022/08/05 16:56:54;;;;;;;8.10;4.20;;;;;;;;;;10532565;28;20100;-85
2022/08/05 17:02:06;;;;;;;5.68;3.80;;;;;;;;;;10523991;28;20143;-84
2022/08/05 17:07:19;;;;;;;8.32;3.80;;;;;;;;;;10531529;28;20066;-84
2022/08/05 17:12:47;;;;;;;8.35;5.28;;;;;;;;;;10540459;28;20032;-83
2022/08/05 17:18:00;;;;;;;5.45;3.42;;;;;;;;;;10513407;28;20052;-85
2022/08/05 17:23:10;;;;;;;7.03;3.63;;;;;;;;;;10528661;28;20089;-84
2022/08/05 17:28:40;;;;;;;6.25;3.50;;;;;;;;;;10514179;28;20461;-84
2022/08/05 17:33:54;;;;;;;6.82;3.70;;;;;;;;;;10532735;28;20032;-85
2022/08/05 17:39:02;;;;;;;13.07;3.70;;;;;;;;;;10523852;28;20132;-84
2022/08/05 17:44:33;;;;;;;6.95;3.90;;;;;;;;;;10541519;28;20035;-83
2022/08/05 17:49:52;;;;;;;4.40;3.45;;;;;;;;;;10523350;28;20418;-84
2022/08/05 17:55:12;;;;;;;6.47;3.67;;;;;;;;;;10518577;28;20062;-84
2022/08/05 18:00:20;;;;;;;5.47;3.55;;;;;;;;;;10554943;27;20035;-84
2022/08/05 18:05:43;;;;;;;4.68;3.38;;;;;;;;;;10543478;28;20505;-84
2022/08/05 18:11:02;;;;;;;5.38;3.67;;;;;;;;;;10519042;28;20302;-84
2022/08/05 18:16:15;;;;;;;6.50;4.32;;;;;;;;;;10523029;28;20218;-85
2022/08/05 18:27:26;;;;;;;9.70;4.95;;;;;;;;;;10520159;28;20563;-85
2022/08/05 18:32:41;;;;;;;10.70;5.57;;;;;;;;;;10535401;28;20032;-84
2022/08/05 18:37:58;;;;;;;9.30;4.45;;;;;;;;;;10518791;28;20039;-84
2022/08/05 18:43:18;;;;;;;6.68;4.45;;;;;;;;;;10515385;28;20039;-84
2022/08/05 18:48:27;;;;;;;4.68;3.20;;;;;;;;;;10504376;28;20062;-84
2022/08/05 18:53:51;;;;;;;9.85;4.25;;;;;;;;;;10542366;28;20142;-84
2022/08/05 18:59:08;;;;;;;9.30;4.38;;;;;;;;;;10522135;28;20110;-83
2022/08/05 19:04:44;;;;;;;8.38;4.43;;;;;;;;;;10519721;28;20031;-84
2022/08/05 19:10:14;;;;;;;13.10;5.30;;;;;;;;;;10518637;28;20123;-83
2022/08/05 19:15:44;;;;;;;9.43;4.53;;;;;;;;;;10508535;28;20043;-83
2022/08/05 19:21:04;;;;;;;9.73;3.67;;;;;;;;;;10524417;28;20150;-85
2022/08/05 19:26:15;;;;;;;7.93;2.58;;;;;;;;;;10524119;28;20127;-84
2022/08/05 19:31:30;;;;;;;6.93;2.35;;;;;;;;;;10541503;28;20044;-84
2022/08/05 19:36:47;;;;;;;14.20;5.50;;;;;;;;;;10513557;28;20044;-84
2022/08/05 19:42:03;;;;;;;9.65;4.30;;;;;;;;;;10498300;28;20282;-84
2022/08/05 19:47:23;;;;;;;7.35;3.47;;;;;;;;;;10543078;28;20055;-85
2022/08/05 19:52:56;;;;;;;9.48;3.80;;;;;;;;;;10539290;28;20047;-86
2022/08/05 19:58:29;;;;;;;10.40;4.32;;;;;;;;;;10535434;28;20044;-84
2022/08/05 20:04:11;;;;;;;8.93;3.80;;;;;;;;;;10522187;28;20055;-84
2022/08/05 20:09:23;;;;;;;13.15;6.80;;;;;;;;;;10514630;28;20476;-86
2022/08/05 20:14:37;;;;;;;11.50;5.75;;;;;;;;;;10518851;28;20219;-89
2022/08/05 20:20:00;;;;;;;7.93;5.32;;;;;;;;;;10518187;28;20067;-90
2022/08/05 20:25:10;;;;;;;12.93;5.80;;;;;;;;;;10544668;28;20036;-90
2022/08/05 20:30:26;;;;;;;9.27;4.88;;;;;;;;;;10539512;28;20074;-89
2022/08/05 20:35:36;;;;;;;10.48;5.72;;;;;;;;;;10523117;28;20568;-88
2022/08/05 20:40:58;;;;;;;13.75;7.82;;;;;;;;;;10523995;28;20054;-90
2022/08/05 20:46:36;;;;;;;11.95;5.10;;;;;;;;;;10540009;28;20036;-89
2022/08/05 20:51:47;;;;;;;6.78;3.70;;;;;;;;;;10519508;28;20413;-90
2022/08/05 20:57:02;;;;;;;7.20;3.97;;;;;;;;;;10510210;28;20292;-90
2022/08/05 21:02:11;;;;;;;7.55;3.70;;;;;;;;;;10543686;28;20048;-91
2022/08/05 21:07:32;;;;;;;7.35;3.58;;;;;;;;;;10523218;28;20036;-91
2022/08/05 21:12:56;;;;;;;8.05;4.13;;;;;;;;;;10532948;28;20071;-92
2022/08/05 21:18:20;;;;;;;6.70;3.67;;;;;;;;;;10643187;22;20048;-91
2022/08/05 21:23:25;;;;;;;9.65;5.60;;;;;;;;;;10480899;28;20059;-91
2022/08/05 21:28:29;;;;;;;8.75;3.42;;;;;;;;;;10492278;28;20039;-90
2022/08/05 21:33:34;;;;;;;7.30;3.63;;;;;;;;;;10481124;28;20060;-91
2022/08/05 21:38:41;;;;;;;12.02;4.97;;;;;;;;;;10488282;28;21422;-88
2022/08/05 21:43:47;;;;;;;7.18;3.13;;;;;;;;;;10458639;28;20321;-87
2022/08/05 21:49:05;;;;;;;8.57;4.13;;;;;;;;;;10483929;28;20039;-87
2022/08/05 21:54:28;;;;;;;13.23;5.28;;;;;;;;;;10488659;28;20097;-87
2022/08/05 21:59:32;;;;;;;8.02;4.40;;;;;;;;;;10460868;28;20095;-85
2022/08/05 22:04:57;;;;;;;8.68;4.43;;;;;;;;;;10482748;28;20146;-86
2022/08/05 22:10:03;;;;;;;6.57;3.90;;;;;;;;;;10465522;28;20044;-86
2022/08/05 22:15:08;;;;;;;10.82;5.03;;;;;;;;;;10461427;28;20543;-88
2022/08/05 22:20:19;;;;;;;9.20;4.15;;;;;;;;;;10464511;28;20094;-85
2022/08/05 22:31:07;;;;;;;8.88;4.50;;;;;;;;;;10481138;28;20048;-88
2022/08/05 22:36:15;;;;;;;10.32;4.60;;;;;;;;;;10485780;28;20040;-88
2022/08/05 22:41:18;;;;;;;9.15;5.40;;;;;;;;;;10463883;28;20053;-89
2022/08/05 22:46:40;;;;;;;12.00;6.30;;;;;;;;;;10482135;28;20029;-89
2022/08/05 22:51:49;;;;;;;12.77;5.15;;;;;;;;;;10488372;28;20045;-88
2022/08/05 22:57:10;;;;;;;5.25;2.75;;;;;;;;;;10466327;28;20159;-88
2022/08/05 23:02:13;;;;;;;15.00;7.25;;;;;;;;;;10460960;28;20040;-89
2022/08/05 23:07:20;;;;;;;9.80;5.30;;;;;;;;;;10456314;28;20149;-88
2022/08/05 23:12:24;;;;;;;12.25;6.65;;;;;;;;;;10467215;28;20033;-88
2022/08/05 23:17:30;;;;;;;12.18;6.40;;;;;;;;;;10479328;28;20534;-88
2022/08/05 23:22:45;;;;;;;10.82;6.22;;;;;;;;;;10468621;28;20041;-90
2022/08/05 23:27:50;;;;;;;13.25;6.18;;;;;;;;;;10461879;28;20056;-90
2022/08/05 23:33:02;;;;;;;8.68;5.20;;;;;;;;;;10484303;28;20069;-90
2022/08/05 23:38:07;;;;;;;6.88;3.92;;;;;;;;;;10470468;28;20047;-91
2022/08/05 23:43:13;;;;;;;5.78;3.15;;;;;;;;;;10481534;28;20099;-90
2022/08/05 23:48:37;;;;;;;6.63;2.70;;;;;;;;;;10467654;28;20190;-90
2022/08/05 23:53:41;;;;;;;6.28;3.53;;;;;;;;;;10465753;28;20075;-91
2022/08/05 23:58:48;;;;;;;3.67;2.05;;;;;;;;;;10465151;28;20110;-90
